sensor_id;sensor_type;location;lat;lon;timestamp;P1;durP1;ratioP1;P2;durP2;ratioP2
42098;SDS011;27758;55.900;8.516;2023-05-14T00:01:55;16.15;;;12.85;;
42098;SDS011;27758;55.900;8.516;2023-05-14T00:04:22;15.30;;;12.93;;
42098;SDS011;27758;55.900;8.516;2023-05-14T00:06:48;16.92;;;13.07;;
42098;SDS011;27758;55.900;8.516;2023-05-14T00:09:14;16.13;;;13.05;;
42098;SDS011;27758;55.900;8.516;2023-05-14T00:11:39;18.95;;;14.02;;
42098;SDS011;27758;55.900;8.516;2023-05-14T00:14:05;19.05;;;15.27;;
42098;SDS011;27758;55.900;8.516;2023-05-14T00:16:31;18.83;;;14.77;;
42098;SDS011;27758;55.900;8.516;2023-05-14T00:18:56;19.92;;;14.60;;
42098;SDS011;27758;55.900;8.516;2023-05-14T00:21:22;18.55;;;14.18;;
42098;SDS011;27758;55.900;8.516;2023-05-14T00:23:48;19.25;;;14.68;;
42098;SDS011;27758;55.900;8.516;2023-05-14T00:26:13;17.33;;;13.65;;
42098;SDS011;27758;55.900;8.516;2023-05-14T00:28:39;22.00;;;16.00;;
42098;SDS011;27758;55.900;8.516;2023-05-14T00:31:05;20.35;;;15.63;;
42098;SDS011;27758;55.900;8.516;2023-05-14T00:33:31;18.65;;;14.63;;
42098;SDS011;27758;55.900;8.516;2023-05-14T00:35:57;19.58;;;14.10;;
42098;SDS011;27758;55.900;8.516;2023-05-14T00:38:22;16.75;;;14.10;;
42098;SDS011;27758;55.900;8.516;2023-05-14T00:40:51;21.47;;;15.47;;
42098;SDS011;27758;55.900;8.516;2023-05-14T00:43:20;22.05;;;14.88;;
42098;SDS011;27758;55.900;8.516;2023-05-14T00:45:48;19.30;;;15.13;;
42098;SDS011;27758;55.900;8.516;2023-05-14T00:48:15;19.58;;;14.80;;
42098;SDS011;27758;55.900;8.516;2023-05-14T00:50:41;17.40;;;15.15;;
42098;SDS011;27758;55.900;8.516;2023-05-14T00:53:07;17.42;;;14.77;;
42098;SDS011;27758;55.900;8.516;2023-05-14T00:55:37;20.02;;;14.75;;
42098;SDS011;27758;55.900;8.516;2023-05-14T00:58:09;20.70;;;15.30;;
42098;SDS011;27758;55.900;8.516;2023-05-14T01:00:36;21.67;;;16.08;;
42098;SDS011;27758;55.900;8.516;2023-05-14T01:03:03;19.63;;;15.00;;
42098;SDS011;27758;55.900;8.516;2023-05-14T01:11:24;19.70;;;15.98;;
42098;SDS011;27758;55.900;8.516;2023-05-14T01:16:39;21.10;;;16.73;;
42098;SDS011;27758;55.900;8.516;2023-05-14T01:19:06;23.58;;;18.00;;
42098;SDS011;27758;55.900;8.516;2023-05-14T01:21:41;23.70;;;17.80;;
42098;SDS011;27758;55.900;8.516;2023-05-14T01:24:07;22.63;;;16.13;;
42098;SDS011;27758;55.900;8.516;2023-05-14T01:26:33;23.05;;;17.70;;
42098;SDS011;27758;55.900;8.516;2023-05-14T01:29:02;24.98;;;18.23;;
42098;SDS011;27758;55.900;8.516;2023-05-14T01:31:31;25.33;;;19.50;;
42098;SDS011;27758;55.900;8.516;2023-05-14T01:34:03;22.58;;;16.80;;
42098;SDS011;27758;55.900;8.516;2023-05-14T01:36:30;22.63;;;17.20;;
42098;SDS011;27758;55.900;8.516;2023-05-14T01:38:57;24.45;;;17.00;;
42098;SDS011;27758;55.900;8.516;2023-05-14T01:41:24;25.00;;;16.77;;
42098;SDS011;27758;55.900;8.516;2023-05-14T01:43:51;23.10;;;17.10;;
42098;SDS011;27758;55.900;8.516;2023-05-14T01:46:17;22.30;;;15.30;;
42098;SDS011;27758;55.900;8.516;2023-05-14T01:48:43;21.23;;;16.13;;
42098;SDS011;27758;55.900;8.516;2023-05-14T01:51:09;21.02;;;15.82;;
42098;SDS011;27758;55.900;8.516;2023-05-14T01:53:35;22.10;;;16.10;;
42098;SDS011;27758;55.900;8.516;2023-05-14T01:56:00;18.73;;;15.05;;
42098;SDS011;27758;55.900;8.516;2023-05-14T01:58:26;18.40;;;14.23;;
42098;SDS011;27758;55.900;8.516;2023-05-14T02:00:52;20.70;;;14.98;;
42098;SDS011;27758;55.900;8.516;2023-05-14T02:03:18;19.10;;;15.32;;
42098;SDS011;27758;55.900;8.516;2023-05-14T02:05:44;18.98;;;15.57;;
42098;SDS011;27758;55.900;8.516;2023-05-14T02:08:09;18.48;;;14.35;;
42098;SDS011;27758;55.900;8.516;2023-05-14T02:10:35;21.67;;;15.93;;
42098;SDS011;27758;55.900;8.516;2023-05-14T02:13:01;17.80;;;14.30;;
42098;SDS011;27758;55.900;8.516;2023-05-14T02:15:27;19.05;;;15.20;;
42098;SDS011;27758;55.900;8.516;2023-05-14T02:17:53;17.58;;;13.90;;
42098;SDS011;27758;55.900;8.516;2023-05-14T02:20:19;20.13;;;14.35;;
42098;SDS011;27758;55.900;8.516;2023-05-14T02:22:44;20.20;;;14.27;;
42098;SDS011;27758;55.900;8.516;2023-05-14T02:25:10;19.83;;;16.17;;
42098;SDS011;27758;55.900;8.516;2023-05-14T02:27:36;21.27;;;15.50;;
42098;SDS011;27758;55.900;8.516;2023-05-14T02:30:02;22.50;;;14.73;;
42098;SDS011;27758;55.900;8.516;2023-05-14T02:32:28;18.45;;;13.40;;
42098;SDS011;27758;55.900;8.516;2023-05-14T02:34:54;18.95;;;14.00;;
42098;SDS011;27758;55.900;8.516;2023-05-14T02:37:20;19.20;;;15.40;;
42098;SDS011;27758;55.900;8.516;2023-05-14T02:39:46;23.02;;;16.20;;
42098;SDS011;27758;55.900;8.516;2023-05-14T02:42:11;22.38;;;15.15;;
42098;SDS011;27758;55.900;8.516;2023-05-14T02:44:37;19.80;;;14.50;;
42098;SDS011;27758;55.900;8.516;2023-05-14T02:47:03;21.67;;;15.00;;
42098;SDS011;27758;55.900;8.516;2023-05-14T02:49:28;18.15;;;14.02;;
42098;SDS011;27758;55.900;8.516;2023-05-14T02:51:54;20.25;;;14.30;;
42098;SDS011;27758;55.900;8.516;2023-05-14T02:54:20;19.10;;;13.30;;
42098;SDS011;27758;55.900;8.516;2023-05-14T02:56:45;20.95;;;15.02;;
42098;SDS011;27758;55.900;8.516;2023-05-14T02:59:11;17.58;;;13.93;;
42098;SDS011;27758;55.900;8.516;2023-05-14T03:01:37;18.50;;;14.10;;
42098;SDS011;27758;55.900;8.516;2023-05-14T03:04:02;22.42;;;14.18;;
42098;SDS011;27758;55.900;8.516;2023-05-14T03:06:28;18.50;;;13.20;;
42098;SDS011;27758;55.900;8.516;2023-05-14T03:08:55;16.45;;;13.32;;
42098;SDS011;27758;55.900;8.516;2023-05-14T03:11:20;19.70;;;13.32;;
42098;SDS011;27758;55.900;8.516;2023-05-14T03:13:46;17.15;;;13.52;;
42098;SDS011;27758;55.900;8.516;2023-05-14T03:16:12;18.80;;;13.75;;
42098;SDS011;27758;55.900;8.516;2023-05-14T03:18:37;15.15;;;12.65;;
42098;SDS011;27758;55.900;8.516;2023-05-14T03:21:03;18.88;;;13.07;;
42098;SDS011;27758;55.900;8.516;2023-05-14T03:23:29;16.80;;;12.48;;
42098;SDS011;27758;55.900;8.516;2023-05-14T03:25:56;16.20;;;13.20;;
42098;SDS011;27758;55.900;8.516;2023-05-14T03:28:21;17.20;;;13.40;;
42098;SDS011;27758;55.900;8.516;2023-05-14T03:30:47;18.75;;;12.65;;
42098;SDS011;27758;55.900;8.516;2023-05-14T03:33:13;16.10;;;12.57;;
42098;SDS011;27758;55.900;8.516;2023-05-14T03:35:39;17.73;;;13.68;;
42098;SDS011;27758;55.900;8.516;2023-05-14T03:38:04;15.70;;;12.95;;
42098;SDS011;27758;55.900;8.516;2023-05-14T03:40:30;17.42;;;13.68;;
42098;SDS011;27758;55.900;8.516;2023-05-14T03:42:56;15.07;;;12.85;;
42098;SDS011;27758;55.900;8.516;2023-05-14T03:45:22;17.42;;;13.27;;
42098;SDS011;27758;55.900;8.516;2023-05-14T03:47:47;18.73;;;13.68;;
42098;SDS011;27758;55.900;8.516;2023-05-14T03:50:13;17.67;;;13.27;;
42098;SDS011;27758;55.900;8.516;2023-05-14T03:52:39;15.52;;;13.00;;
42098;SDS011;27758;55.900;8.516;2023-05-14T03:55:05;17.80;;;13.95;;
42098;SDS011;27758;55.900;8.516;2023-05-14T03:57:31;17.48;;;13.68;;
42098;SDS011;27758;55.900;8.516;2023-05-14T03:59:56;16.58;;;13.27;;
42098;SDS011;27758;55.900;8.516;2023-05-14T04:02:22;16.55;;;12.98;;
42098;SDS011;27758;55.900;8.516;2023-05-14T04:04:48;15.40;;;12.95;;
42098;SDS011;27758;55.900;8.516;2023-05-14T04:07:13;16.40;;;12.85;;
42098;SDS011;27758;55.900;8.516;2023-05-14T04:09:39;16.35;;;12.35;;
42098;SDS011;27758;55.900;8.516;2023-05-14T04:12:05;18.80;;;12.52;;
42098;SDS011;27758;55.900;8.516;2023-05-14T04:14:31;20.33;;;14.73;;
42098;SDS011;27758;55.900;8.516;2023-05-14T04:16:57;16.52;;;14.05;;
42098;SDS011;27758;55.900;8.516;2023-05-14T04:19:22;16.55;;;13.60;;
42098;SDS011;27758;55.900;8.516;2023-05-14T04:21:48;19.33;;;14.45;;
42098;SDS011;27758;55.900;8.516;2023-05-14T04:24:14;18.17;;;14.55;;
42098;SDS011;27758;55.900;8.516;2023-05-14T04:26:41;16.10;;;13.80;;
42098;SDS011;27758;55.900;8.516;2023-05-14T04:29:07;17.42;;;14.05;;
42098;SDS011;27758;55.900;8.516;2023-05-14T04:31:32;17.17;;;13.95;;
42098;SDS011;27758;55.900;8.516;2023-05-14T04:33:58;17.10;;;14.25;;
42098;SDS011;27758;55.900;8.516;2023-05-14T04:36:24;14.93;;;13.35;;
42098;SDS011;27758;55.900;8.516;2023-05-14T04:38:49;17.83;;;14.02;;
42098;SDS011;27758;55.900;8.516;2023-05-14T04:41:15;17.60;;;14.52;;
42098;SDS011;27758;55.900;8.516;2023-05-14T04:43:41;20.45;;;13.18;;
42098;SDS011;27758;55.900;8.516;2023-05-14T04:46:07;15.15;;;13.10;;
42098;SDS011;27758;55.900;8.516;2023-05-14T04:48:33;18.92;;;14.65;;
42098;SDS011;27758;55.900;8.516;2023-05-14T04:50:59;14.30;;;12.80;;
42098;SDS011;27758;55.900;8.516;2023-05-14T04:53:25;15.45;;;13.13;;
42098;SDS011;27758;55.900;8.516;2023-05-14T04:55:51;14.15;;;11.82;;
42098;SDS011;27758;55.900;8.516;2023-05-14T04:58:16;15.00;;;12.23;;
42098;SDS011;27758;55.900;8.516;2023-05-14T05:00:42;13.20;;;11.02;;
42098;SDS011;27758;55.900;8.516;2023-05-14T05:03:08;14.63;;;12.07;;
42098;SDS011;27758;55.900;8.516;2023-05-14T05:05:34;16.77;;;11.93;;
42098;SDS011;27758;55.900;8.516;2023-05-14T05:08:00;17.83;;;12.90;;
42098;SDS011;27758;55.900;8.516;2023-05-14T05:10:25;15.35;;;12.63;;
42098;SDS011;27758;55.900;8.516;2023-05-14T05:12:51;14.98;;;11.82;;
42098;SDS011;27758;55.900;8.516;2023-05-14T05:15:17;16.50;;;12.48;;
42098;SDS011;27758;55.900;8.516;2023-05-14T05:17:42;12.98;;;11.68;;
42098;SDS011;27758;55.900;8.516;2023-05-14T05:20:08;18.08;;;12.55;;
42098;SDS011;27758;55.900;8.516;2023-05-14T05:22:34;14.35;;;12.85;;
42098;SDS011;27758;55.900;8.516;2023-05-14T05:25:01;14.52;;;11.63;;
42098;SDS011;27758;55.900;8.516;2023-05-14T05:27:30;13.98;;;10.65;;
42098;SDS011;27758;55.900;8.516;2023-05-14T05:29:57;14.68;;;11.88;;
42098;SDS011;27758;55.900;8.516;2023-05-14T05:32:23;14.38;;;12.02;;
42098;SDS011;27758;55.900;8.516;2023-05-14T05:34:49;13.27;;;11.55;;
42098;SDS011;27758;55.900;8.516;2023-05-14T05:37:16;14.18;;;11.77;;
42098;SDS011;27758;55.900;8.516;2023-05-14T05:39:41;15.30;;;11.07;;
42098;SDS011;27758;55.900;8.516;2023-05-14T05:42:07;13.13;;;11.75;;
42098;SDS011;27758;55.900;8.516;2023-05-14T05:44:33;14.30;;;12.43;;
42098;SDS011;27758;55.900;8.516;2023-05-14T05:46:58;15.85;;;12.82;;
42098;SDS011;27758;55.900;8.516;2023-05-14T05:49:24;14.45;;;12.07;;
42098;SDS011;27758;55.900;8.516;2023-05-14T05:51:50;14.68;;;10.95;;
42098;SDS011;27758;55.900;8.516;2023-05-14T05:54:15;12.10;;;10.68;;
42098;SDS011;27758;55.900;8.516;2023-05-14T05:56:41;13.55;;;11.25;;
42098;SDS011;27758;55.900;8.516;2023-05-14T05:59:07;12.43;;;10.85;;
42098;SDS011;27758;55.900;8.516;2023-05-14T06:01:33;13.07;;;9.93;;
42098;SDS011;27758;55.900;8.516;2023-05-14T06:03:58;13.32;;;11.57;;
42098;SDS011;27758;55.900;8.516;2023-05-14T06:06:24;13.07;;;10.02;;
42098;SDS011;27758;55.900;8.516;2023-05-14T06:08:50;12.82;;;10.40;;
42098;SDS011;27758;55.900;8.516;2023-05-14T06:11:15;11.50;;;10.30;;
42098;SDS011;27758;55.900;8.516;2023-05-14T06:13:41;12.23;;;10.05;;
42098;SDS011;27758;55.900;8.516;2023-05-14T06:16:07;11.25;;;9.45;;
42098;SDS011;27758;55.900;8.516;2023-05-14T06:18:33;10.70;;;9.40;;
42098;SDS011;27758;55.900;8.516;2023-05-14T06:20:59;10.85;;;9.75;;
42098;SDS011;27758;55.900;8.516;2023-05-14T06:23:25;13.23;;;9.35;;
42098;SDS011;27758;55.900;8.516;2023-05-14T06:25:51;14.85;;;8.90;;
42098;SDS011;27758;55.900;8.516;2023-05-14T06:28:16;11.52;;;9.98;;
42098;SDS011;27758;55.900;8.516;2023-05-14T06:30:42;12.10;;;9.38;;
42098;SDS011;27758;55.900;8.516;2023-05-14T06:33:08;10.90;;;9.80;;
42098;SDS011;27758;55.900;8.516;2023-05-14T06:35:34;11.10;;;9.38;;
42098;SDS011;27758;55.900;8.516;2023-05-14T06:37:59;13.45;;;8.68;;
42098;SDS011;27758;55.900;8.516;2023-05-14T06:40:25;12.43;;;8.40;;
42098;SDS011;27758;55.900;8.516;2023-05-14T06:42:51;12.80;;;8.85;;
42098;SDS011;27758;55.900;8.516;2023-05-14T06:45:19;11.40;;;9.05;;
42098;SDS011;27758;55.900;8.516;2023-05-14T06:47:45;11.90;;;8.60;;
42098;SDS011;27758;55.900;8.516;2023-05-14T06:50:12;11.95;;;8.95;;
42098;SDS011;27758;55.900;8.516;2023-05-14T06:52:40;12.13;;;8.77;;
42098;SDS011;27758;55.900;8.516;2023-05-14T06:55:09;10.35;;;8.73;;
42098;SDS011;27758;55.900;8.516;2023-05-14T06:57:35;9.90;;;8.75;;
42098;SDS011;27758;55.900;8.516;2023-05-14T07:00:00;9.80;;;8.80;;
42098;SDS011;27758;55.900;8.516;2023-05-14T07:02:26;11.45;;;9.95;;
42098;SDS011;27758;55.900;8.516;2023-05-14T07:04:51;10.00;;;8.73;;
42098;SDS011;27758;55.900;8.516;2023-05-14T07:07:17;13.27;;;10.05;;
42098;SDS011;27758;55.900;8.516;2023-05-14T07:09:45;14.95;;;9.95;;
42098;SDS011;27758;55.900;8.516;2023-05-14T07:12:11;15.73;;;10.18;;
42098;SDS011;27758;55.900;8.516;2023-05-14T07:14:37;12.50;;;9.38;;
42098;SDS011;27758;55.900;8.516;2023-05-14T07:17:02;12.68;;;9.63;;
42098;SDS011;27758;55.900;8.516;2023-05-14T07:19:28;13.18;;;9.70;;
42098;SDS011;27758;55.900;8.516;2023-05-14T07:21:55;12.18;;;9.90;;
42098;SDS011;27758;55.900;8.516;2023-05-14T07:24:21;12.52;;;9.93;;
42098;SDS011;27758;55.900;8.516;2023-05-14T07:26:47;13.05;;;9.40;;
42098;SDS011;27758;55.900;8.516;2023-05-14T07:29:14;12.23;;;10.15;;
42098;SDS011;27758;55.900;8.516;2023-05-14T07:31:40;11.27;;;9.77;;
42098;SDS011;27758;55.900;8.516;2023-05-14T07:34:06;13.48;;;9.80;;
42098;SDS011;27758;55.900;8.516;2023-05-14T07:36:32;11.10;;;9.82;;
42098;SDS011;27758;55.900;8.516;2023-05-14T07:38:58;13.45;;;10.82;;
42098;SDS011;27758;55.900;8.516;2023-05-14T07:41:24;14.48;;;10.80;;
42098;SDS011;27758;55.900;8.516;2023-05-14T07:43:51;11.52;;;8.95;;
42098;SDS011;27758;55.900;8.516;2023-05-14T07:46:17;13.00;;;10.82;;
42098;SDS011;27758;55.900;8.516;2023-05-14T07:48:42;12.30;;;10.95;;
42098;SDS011;27758;55.900;8.516;2023-05-14T07:51:08;15.57;;;11.25;;
42098;SDS011;27758;55.900;8.516;2023-05-14T07:53:34;11.55;;;10.38;;
42098;SDS011;27758;55.900;8.516;2023-05-14T07:55:59;15.43;;;12.00;;
42098;SDS011;27758;55.900;8.516;2023-05-14T07:58:25;12.85;;;11.20;;
42098;SDS011;27758;55.900;8.516;2023-05-14T08:00:52;14.27;;;11.02;;
42098;SDS011;27758;55.900;8.516;2023-05-14T08:03:18;11.98;;;10.05;;
42098;SDS011;27758;55.900;8.516;2023-05-14T08:05:44;17.98;;;11.35;;
42098;SDS011;27758;55.900;8.516;2023-05-14T08:08:10;16.20;;;10.75;;
42098;SDS011;27758;55.900;8.516;2023-05-14T08:10:36;16.73;;;10.77;;
42098;SDS011;27758;55.900;8.516;2023-05-14T08:13:02;14.68;;;11.10;;
42098;SDS011;27758;55.900;8.516;2023-05-14T08:15:28;26.13;;;14.93;;
42098;SDS011;27758;55.900;8.516;2023-05-14T08:17:53;12.73;;;10.75;;
42098;SDS011;27758;55.900;8.516;2023-05-14T08:20:19;19.38;;;10.85;;
42098;SDS011;27758;55.900;8.516;2023-05-14T08:22:45;17.80;;;11.55;;
42098;SDS011;27758;55.900;8.516;2023-05-14T08:25:11;13.95;;;10.30;;
42098;SDS011;27758;55.900;8.516;2023-05-14T08:27:36;21.05;;;10.95;;
42098;SDS011;27758;55.900;8.516;2023-05-14T08:30:03;13.40;;;9.10;;
42098;SDS011;27758;55.900;8.516;2023-05-14T08:32:30;10.38;;;8.60;;
42098;SDS011;27758;55.900;8.516;2023-05-14T08:34:56;17.20;;;8.10;;
42098;SDS011;27758;55.900;8.516;2023-05-14T08:37:22;9.45;;;8.00;;
42098;SDS011;27758;55.900;8.516;2023-05-14T08:39:47;11.07;;;8.35;;
42098;SDS011;27758;55.900;8.516;2023-05-14T08:42:13;9.48;;;7.78;;
42098;SDS011;27758;55.900;8.516;2023-05-14T08:44:46;10.23;;;8.32;;
42098;SDS011;27758;55.900;8.516;2023-05-14T08:47:17;11.88;;;8.57;;
42098;SDS011;27758;55.900;8.516;2023-05-14T08:49:45;13.77;;;8.15;;
42098;SDS011;27758;55.900;8.516;2023-05-14T08:52:14;10.85;;;8.65;;
42098;SDS011;27758;55.900;8.516;2023-05-14T08:54:42;9.15;;;8.18;;
42098;SDS011;27758;55.900;8.516;2023-05-14T08:57:08;12.07;;;8.73;;
42098;SDS011;27758;55.900;8.516;2023-05-14T08:59:35;11.93;;;8.30;;
42098;SDS011;27758;55.900;8.516;2023-05-14T09:02:01;9.15;;;7.57;;
42098;SDS011;27758;55.900;8.516;2023-05-14T09:04:30;12.50;;;8.17;;
42098;SDS011;27758;55.900;8.516;2023-05-14T09:06:56;12.35;;;8.60;;
42098;SDS011;27758;55.900;8.516;2023-05-14T09:09:26;9.52;;;7.93;;
42098;SDS011;27758;55.900;8.516;2023-05-14T09:11:53;10.18;;;7.65;;
42098;SDS011;27758;55.900;8.516;2023-05-14T09:14:19;12.60;;;8.20;;
42098;SDS011;27758;55.900;8.516;2023-05-14T09:16:47;12.20;;;8.10;;
42098;SDS011;27758;55.900;8.516;2023-05-14T09:19:13;16.15;;;7.97;;
42098;SDS011;27758;55.900;8.516;2023-05-14T09:21:43;9.57;;;7.55;;
42098;SDS011;27758;55.900;8.516;2023-05-14T09:24:17;11.23;;;8.25;;
42098;SDS011;27758;55.900;8.516;2023-05-14T09:26:51;13.10;;;8.07;;
42098;SDS011;27758;55.900;8.516;2023-05-14T09:29:18;12.40;;;7.72;;
42098;SDS011;27758;55.900;8.516;2023-05-14T09:31:44;9.25;;;8.00;;
42098;SDS011;27758;55.900;8.516;2023-05-14T09:34:10;13.27;;;8.00;;
42098;SDS011;27758;55.900;8.516;2023-05-14T09:36:36;9.73;;;7.70;;
42098;SDS011;27758;55.900;8.516;2023-05-14T09:39:02;10.07;;;7.57;;
42098;SDS011;27758;55.900;8.516;2023-05-14T09:41:28;10.80;;;8.00;;
42098;SDS011;27758;55.900;8.516;2023-05-14T09:43:54;11.82;;;7.75;;
42098;SDS011;27758;55.900;8.516;2023-05-14T09:46:21;10.27;;;8.07;;
42098;SDS011;27758;55.900;8.516;2023-05-14T09:48:47;9.48;;;8.02;;
42098;SDS011;27758;55.900;8.516;2023-05-14T09:51:15;9.80;;;7.30;;
42098;SDS011;27758;55.900;8.516;2023-05-14T09:53:45;11.10;;;7.90;;
42098;SDS011;27758;55.900;8.516;2023-05-14T09:56:11;13.00;;;7.70;;
42098;SDS011;27758;55.900;8.516;2023-05-14T09:58:36;11.98;;;7.63;;
42098;SDS011;27758;55.900;8.516;2023-05-14T10:01:02;8.05;;;7.25;;
42098;SDS011;27758;55.900;8.516;2023-05-14T10:03:29;9.15;;;7.85;;
42098;SDS011;27758;55.900;8.516;2023-05-14T10:05:57;18.33;;;8.05;;
42098;SDS011;27758;55.900;8.516;2023-05-14T10:08:34;10.27;;;7.93;;
42098;SDS011;27758;55.900;8.516;2023-05-14T10:11:05;10.63;;;7.25;;
42098;SDS011;27758;55.900;8.516;2023-05-14T10:13:38;9.00;;;7.00;;
42098;SDS011;27758;55.900;8.516;2023-05-14T10:16:21;9.65;;;7.40;;
42098;SDS011;27758;55.900;8.516;2023-05-14T10:19:09;12.45;;;7.30;;
42098;SDS011;27758;55.900;8.516;2023-05-14T10:21:36;7.88;;;7.05;;
42098;SDS011;27758;55.900;8.516;2023-05-14T10:24:04;10.55;;;6.70;;
42098;SDS011;27758;55.900;8.516;2023-05-14T10:26:35;10.32;;;7.53;;
42098;SDS011;27758;55.900;8.516;2023-05-14T10:29:03;10.35;;;7.22;;
42098;SDS011;27758;55.900;8.516;2023-05-14T10:34:31;9.05;;;7.63;;
42098;SDS011;27758;55.900;8.516;2023-05-14T10:37:14;11.60;;;7.80;;
42098;SDS011;27758;55.900;8.516;2023-05-14T10:39:51;10.07;;;8.00;;
42098;SDS011;27758;55.900;8.516;2023-05-14T10:42:27;8.85;;;7.93;;
42098;SDS011;27758;55.900;8.516;2023-05-14T10:47:39;10.57;;;6.88;;
42098;SDS011;27758;55.900;8.516;2023-05-14T10:50:12;9.23;;;7.25;;
42098;SDS011;27758;55.900;8.516;2023-05-14T10:52:42;11.05;;;7.25;;
42098;SDS011;27758;55.900;8.516;2023-05-14T10:55:13;8.68;;;6.97;;
42098;SDS011;27758;55.900;8.516;2023-05-14T10:57:43;8.10;;;6.70;;
42098;SDS011;27758;55.900;8.516;2023-05-14T11:00:10;12.20;;;7.40;;
42098;SDS011;27758;55.900;8.516;2023-05-14T11:02:39;11.68;;;7.68;;
42098;SDS011;27758;55.900;8.516;2023-05-14T11:05:15;9.15;;;7.15;;
42098;SDS011;27758;55.900;8.516;2023-05-14T11:07:45;10.07;;;7.50;;
42098;SDS011;27758;55.900;8.516;2023-05-14T11:10:13;10.68;;;8.13;;
42098;SDS011;27758;55.900;8.516;2023-05-14T11:12:43;10.73;;;8.30;;
42098;SDS011;27758;55.900;8.516;2023-05-14T11:15:15;12.90;;;8.13;;
42098;SDS011;27758;55.900;8.516;2023-05-14T11:17:46;14.07;;;7.97;;
42098;SDS011;27758;55.900;8.516;2023-05-14T11:20:13;10.88;;;8.70;;
42098;SDS011;27758;55.900;8.516;2023-05-14T11:22:41;9.70;;;8.05;;
42098;SDS011;27758;55.900;8.516;2023-05-14T11:25:07;10.93;;;8.32;;
42098;SDS011;27758;55.900;8.516;2023-05-14T11:27:35;10.32;;;7.13;;
42098;SDS011;27758;55.900;8.516;2023-05-14T11:30:02;12.40;;;7.45;;
42098;SDS011;27758;55.900;8.516;2023-05-14T11:32:32;9.18;;;7.47;;
42098;SDS011;27758;55.900;8.516;2023-05-14T11:34:59;10.88;;;7.38;;
42098;SDS011;27758;55.900;8.516;2023-05-14T11:37:24;10.52;;;7.10;;
42098;SDS011;27758;55.900;8.516;2023-05-14T11:39:53;9.00;;;6.53;;
42098;SDS011;27758;55.900;8.516;2023-05-14T11:42:22;10.93;;;8.32;;
42098;SDS011;27758;55.900;8.516;2023-05-14T11:44:50;12.07;;;7.45;;
42098;SDS011;27758;55.900;8.516;2023-05-14T11:47:18;9.32;;;7.22;;
42098;SDS011;27758;55.900;8.516;2023-05-14T11:49:45;9.23;;;7.45;;
42098;SDS011;27758;55.900;8.516;2023-05-14T11:52:12;9.98;;;6.40;;
42098;SDS011;27758;55.900;8.516;2023-05-14T11:54:39;10.25;;;6.45;;
42098;SDS011;27758;55.900;8.516;2023-05-14T11:57:08;10.60;;;6.88;;
42098;SDS011;27758;55.900;8.516;2023-05-14T11:59:35;11.25;;;7.22;;
42098;SDS011;27758;55.900;8.516;2023-05-14T12:02:01;7.57;;;6.38;;
42098;SDS011;27758;55.900;8.516;2023-05-14T12:04:29;11.27;;;6.60;;
42098;SDS011;27758;55.900;8.516;2023-05-14T12:06:56;9.65;;;6.20;;
42098;SDS011;27758;55.900;8.516;2023-05-14T12:09:23;13.13;;;6.75;;
42098;SDS011;27758;55.900;8.516;2023-05-14T12:11:49;11.15;;;6.22;;
42098;SDS011;27758;55.900;8.516;2023-05-14T12:14:19;10.25;;;6.65;;
42098;SDS011;27758;55.900;8.516;2023-05-14T12:16:46;10.38;;;6.50;;
42098;SDS011;27758;55.900;8.516;2023-05-14T12:19:13;9.93;;;5.60;;
42098;SDS011;27758;55.900;8.516;2023-05-14T12:21:41;7.18;;;5.32;;
42098;SDS011;27758;55.900;8.516;2023-05-14T12:24:08;9.40;;;5.85;;
42098;SDS011;27758;55.900;8.516;2023-05-14T12:26:36;7.97;;;5.70;;
42098;SDS011;27758;55.900;8.516;2023-05-14T12:29:03;6.75;;;5.95;;
42098;SDS011;27758;55.900;8.516;2023-05-14T12:31:33;7.53;;;5.32;;
42098;SDS011;27758;55.900;8.516;2023-05-14T12:36:26;6.28;;;4.82;;
42098;SDS011;27758;55.900;8.516;2023-05-14T12:38:59;7.72;;;4.88;;
42098;SDS011;27758;55.900;8.516;2023-05-14T12:41:26;9.63;;;5.28;;
42098;SDS011;27758;55.900;8.516;2023-05-14T12:43:52;10.32;;;5.15;;
42098;SDS011;27758;55.900;8.516;2023-05-14T12:46:17;10.10;;;5.43;;
42098;SDS011;27758;55.900;8.516;2023-05-14T12:48:43;5.72;;;5.13;;
42098;SDS011;27758;55.900;8.516;2023-05-14T12:51:10;8.43;;;5.05;;
42098;SDS011;27758;55.900;8.516;2023-05-14T12:53:36;7.75;;;4.90;;
42098;SDS011;27758;55.900;8.516;2023-05-14T12:56:01;6.18;;;5.13;;
42098;SDS011;27758;55.900;8.516;2023-05-14T12:58:27;9.13;;;5.30;;
42098;SDS011;27758;55.900;8.516;2023-05-14T13:00:53;8.43;;;5.03;;
42098;SDS011;27758;55.900;8.516;2023-05-14T13:03:19;11.60;;;6.05;;
42098;SDS011;27758;55.900;8.516;2023-05-14T13:05:45;5.70;;;5.13;;
42098;SDS011;27758;55.900;8.516;2023-05-14T13:08:10;6.85;;;4.90;;
42098;SDS011;27758;55.900;8.516;2023-05-14T13:10:39;5.28;;;4.60;;
42098;SDS011;27758;55.900;8.516;2023-05-14T13:13:05;6.78;;;4.63;;
42098;SDS011;27758;55.900;8.516;2023-05-14T13:15:30;5.28;;;4.80;;
42098;SDS011;27758;55.900;8.516;2023-05-14T13:17:57;6.47;;;4.47;;
42098;SDS011;27758;55.900;8.516;2023-05-14T13:20:23;7.38;;;4.13;;
42098;SDS011;27758;55.900;8.516;2023-05-14T13:22:51;5.60;;;4.38;;
42098;SDS011;27758;55.900;8.516;2023-05-14T13:25:17;5.03;;;4.30;;
42098;SDS011;27758;55.900;8.516;2023-05-14T13:27:42;6.95;;;4.47;;
42098;SDS011;27758;55.900;8.516;2023-05-14T13:30:08;8.90;;;4.80;;
42098;SDS011;27758;55.900;8.516;2023-05-14T13:32:34;7.65;;;4.45;;
42098;SDS011;27758;55.900;8.516;2023-05-14T13:35:00;6.43;;;4.60;;
42098;SDS011;27758;55.900;8.516;2023-05-14T13:37:25;7.00;;;4.20;;
42098;SDS011;27758;55.900;8.516;2023-05-14T13:39:51;8.10;;;3.95;;
42098;SDS011;27758;55.900;8.516;2023-05-14T13:42:16;5.45;;;4.22;;
42098;SDS011;27758;55.900;8.516;2023-05-14T13:44:42;7.30;;;4.35;;
42098;SDS011;27758;55.900;8.516;2023-05-14T13:47:08;6.45;;;4.80;;
42098;SDS011;27758;55.900;8.516;2023-05-14T13:49:34;9.52;;;4.38;;
42098;SDS011;27758;55.900;8.516;2023-05-14T13:51:59;7.97;;;4.10;;
42098;SDS011;27758;55.900;8.516;2023-05-14T13:54:25;4.90;;;4.22;;
42098;SDS011;27758;55.900;8.516;2023-05-14T13:56:51;9.48;;;4.20;;
42098;SDS011;27758;55.900;8.516;2023-05-14T13:59:17;7.88;;;4.72;;
42098;SDS011;27758;55.900;8.516;2023-05-14T14:01:42;7.15;;;4.82;;
42098;SDS011;27758;55.900;8.516;2023-05-14T14:04:08;4.47;;;4.05;;
42098;SDS011;27758;55.900;8.516;2023-05-14T14:06:34;7.28;;;4.03;;
42098;SDS011;27758;55.900;8.516;2023-05-14T14:09:00;4.38;;;3.95;;
42098;SDS011;27758;55.900;8.516;2023-05-14T14:11:26;11.25;;;4.68;;
42098;SDS011;27758;55.900;8.516;2023-05-14T14:13:52;6.38;;;4.18;;
42098;SDS011;27758;55.900;8.516;2023-05-14T14:16:18;6.38;;;4.47;;
42098;SDS011;27758;55.900;8.516;2023-05-14T14:18:44;8.45;;;4.35;;
42098;SDS011;27758;55.900;8.516;2023-05-14T14:21:10;4.03;;;3.72;;
42098;SDS011;27758;55.900;8.516;2023-05-14T14:23:36;6.93;;;4.35;;
42098;SDS011;27758;55.900;8.516;2023-05-14T14:26:01;8.40;;;4.20;;
42098;SDS011;27758;55.900;8.516;2023-05-14T14:28:27;5.32;;;3.92;;
42098;SDS011;27758;55.900;8.516;2023-05-14T14:30:53;5.90;;;4.35;;
42098;SDS011;27758;55.900;8.516;2023-05-14T14:33:19;6.80;;;4.03;;
42098;SDS011;27758;55.900;8.516;2023-05-14T14:35:45;5.95;;;3.75;;
42098;SDS011;27758;55.900;8.516;2023-05-14T14:38:10;6.15;;;4.10;;
42098;SDS011;27758;55.900;8.516;2023-05-14T14:40:36;5.68;;;4.00;;
42098;SDS011;27758;55.900;8.516;2023-05-14T14:43:02;10.38;;;6.47;;
42098;SDS011;27758;55.900;8.516;2023-05-14T14:45:28;10.48;;;4.88;;